createdAt,value
2019-04-29T00:01:26.241Z,88.40
2019-04-29T00:04:12.593Z,88.35
2019-04-29T00:06:58.615Z,88.03
2019-04-29T00:09:44.587Z,87.94
2019-04-29T00:12:31.335Z,87.46
2019-04-29T00:15:46.115Z,87.13
2019-04-29T00:19:09.925Z,86.69
2019-04-29T00:21:56.605Z,87.16
2019-04-29T00:24:42.900Z,87.90
2019-04-29T00:27:29.359Z,87.83
2019-04-29T00:30:20.715Z,87.78
2019-04-29T00:33:06.972Z,87.73
2019-04-29T00:35:53.085Z,87.77
2019-04-29T00:38:58.654Z,88.26
2019-04-29T00:42:07.231Z,88.45
2019-04-29T00:44:53.608Z,88.14
2019-04-29T00:47:39.885Z,87.96
2019-04-29T00:50:26.115Z,87.52
2019-04-29T00:53:12.280Z,87.73
2019-04-29T00:56:01.175Z,87.90
2019-04-29T00:58:47.171Z,88.05
2019-04-29T01:01:33.170Z,87.61
2019-04-29T01:04:19.395Z,87.62
2019-04-29T01:07:06.035Z,87.07
2019-04-29T01:09:52.175Z,87.03
2019-04-29T01:12:38.273Z,87.73
2019-04-29T01:15:24.435Z,87.77
2019-04-29T01:18:10.485Z,88.26
2019-04-29T01:20:56.630Z,88.31
2019-04-29T01:23:42.901Z,88.43
2019-04-29T01:26:47.100Z,88.71
2019-04-29T01:29:33.765Z,88.70
2019-04-29T01:32:19.849Z,88.37
2019-04-29T01:35:05.885Z,88.80
2019-04-29T01:37:52.110Z,88.35
2019-04-29T01:40:57.810Z,88.77
2019-04-29T01:44:03.340Z,88.74
2019-04-29T01:46:49.530Z,88.65
2019-04-29T01:49:35.664Z,88.71
2019-04-29T01:52:21.810Z,88.23
2019-04-29T01:55:08.034Z,88.15
2019-04-29T01:57:54.120Z,88.32
2019-04-29T02:00:40.129Z,89.05
2019-04-29T02:03:26.265Z,88.85
2019-04-29T02:06:12.594Z,89.21
2019-04-29T02:08:58.784Z,88.58
2019-04-29T02:11:44.651Z,88.39
2019-04-29T02:14:30.984Z,88.18
2019-04-29T02:17:17.086Z,87.70
2019-04-29T02:20:04.074Z,87.30
2019-04-29T02:23:10.120Z,87.45
2019-04-29T02:25:56.360Z,87.65
2019-04-29T02:28:42.355Z,88.46
2019-04-29T02:31:37.588Z,88.38
2019-04-29T02:34:23.912Z,88.34
2019-04-29T02:37:12.183Z,88.68
2019-04-29T02:40:04.965Z,88.66
2019-04-29T02:43:00.440Z,88.23
2019-04-29T02:45:46.995Z,87.92
2019-04-29T02:48:34.669Z,88.51
2019-04-29T02:51:39.548Z,88.66
2019-04-29T02:54:27.635Z,88.71
2019-04-29T02:57:36.067Z,88.92
2019-04-29T03:00:44.620Z,88.92
2019-04-29T03:03:48.835Z,88.71
2019-04-29T03:06:35.387Z,88.72
2019-04-29T03:09:21.337Z,88.58
2019-04-29T03:12:07.492Z,88.18
2019-04-29T03:14:53.636Z,87.48
2019-04-29T03:17:39.730Z,87.14
2019-04-29T03:20:50.355Z,87.40
2019-04-29T03:23:36.600Z,88.14
2019-04-29T03:26:22.759Z,88.55
2019-04-29T03:29:21.430Z,88.76
2019-04-29T03:32:07.859Z,88.75
2019-04-29T03:34:54.045Z,88.92
2019-04-29T03:37:40.167Z,89.02
2019-04-29T03:40:26.612Z,88.97
2019-04-29T03:43:12.660Z,88.72
2019-04-29T03:45:58.940Z,88.56
2019-04-29T03:48:44.992Z,88.37
2019-04-29T03:51:30.983Z,88.23
2019-04-29T03:54:17.095Z,88.41
2019-04-29T03:57:03.090Z,88.36
2019-04-29T03:59:49.139Z,88.26
2019-04-29T04:02:45.016Z,88.02
2019-04-29T04:05:56.908Z,88.04
2019-04-29T04:09:04.293Z,87.87
2019-04-29T04:11:33.907Z,87.66
2019-04-29T04:14:20.035Z,88.65
2019-04-29T04:17:20.251Z,88.67
2019-04-29T04:20:04.740Z,88.42
2019-04-29T04:22:50.922Z,88.33
2019-04-29T04:25:37.125Z,87.88
2019-04-29T04:28:23.170Z,88.10
2019-04-29T04:31:09.172Z,89.09
2019-04-29T04:33:55.366Z,88.81
2019-04-29T04:36:41.860Z,88.81
2019-04-29T04:39:29.792Z,88.51
2019-04-29T04:42:16.185Z,88.45
2019-04-29T04:45:02.707Z,88.25
2019-04-29T04:47:48.601Z,87.46
2019-04-29T04:50:34.775Z,86.93
2019-04-29T04:53:20.950Z,87.88
2019-04-29T04:56:06.890Z,88.33
2019-04-29T04:58:53.104Z,87.95
2019-04-29T05:01:39.385Z,88.18
2019-04-29T05:04:25.345Z,87.55
2019-04-29T05:07:11.686Z,87.02
2019-04-29T05:09:57.784Z,86.16
2019-04-29T05:12:44.019Z,84.97
2019-04-29T05:15:30.300Z,83.88
2019-04-29T05:18:16.301Z,83.75
2019-04-29T05:21:02.354Z,82.91
2019-04-29T05:23:48.581Z,82.69
2019-04-29T05:26:34.676Z,82.00
2019-04-29T05:29:20.873Z,82.17
2019-04-29T05:32:06.976Z,81.42
2019-04-29T05:34:55.231Z,81.02
2019-04-29T05:37:51.514Z,80.40
2019-04-29T05:40:46.187Z,80.09
2019-04-29T05:43:47.406Z,79.78
2019-04-29T05:46:48.220Z,79.38
2019-04-29T05:49:41.618Z,79.63
2019-04-29T05:52:49.807Z,80.33
2019-04-29T05:55:36.343Z,80.82
2019-04-29T05:58:22.305Z,80.12
2019-04-29T06:01:13.830Z,79.59
2019-04-29T06:03:59.621Z,78.52
2019-04-29T06:06:45.825Z,77.18
2019-04-29T06:09:31.730Z,76.12
2019-04-29T06:12:17.873Z,76.89
2019-04-29T06:15:04.238Z,77.72
2019-04-29T06:17:50.482Z,77.30
2019-04-29T06:20:36.742Z,77.66
2019-04-29T06:23:24.188Z,77.11
2019-04-29T06:26:10.688Z,77.07
2019-04-29T06:28:56.867Z,76.83
2019-04-29T06:31:42.987Z,75.16
2019-04-29T06:34:29.267Z,74.66
2019-04-29T06:37:15.627Z,75.37
2019-04-29T06:40:01.546Z,73.39
2019-04-29T06:42:49.387Z,73.90
2019-04-29T06:45:36.190Z,72.89
2019-04-29T06:48:22.331Z,72.64
2019-04-29T06:51:08.390Z,72.28
2019-04-29T06:53:54.867Z,69.63
2019-04-29T06:56:40.867Z,69.52
2019-04-29T06:59:26.905Z,67.12
2019-04-29T07:02:14.400Z,65.52
2019-04-29T07:05:01.282Z,62.96
2019-04-29T07:07:47.525Z,63.16
2019-04-29T07:10:34.166Z,62.60
2019-04-29T07:13:22.778Z,61.04
2019-04-29T07:16:08.409Z,60.88
2019-04-29T07:18:54.775Z,61.42
2019-04-29T07:21:41.965Z,59.65
2019-04-29T07:24:29.428Z,58.35
2019-04-29T07:27:16.502Z,56.57
2019-04-29T07:30:06.512Z,58.06
2019-04-29T07:32:50.814Z,58.07
2019-04-29T07:35:38.253Z,58.65
2019-04-29T07:38:24.587Z,56.21
2019-04-29T07:41:14.270Z,57.05
2019-04-29T07:43:59.167Z,57.28
2019-04-29T07:46:56.702Z,58.95
2019-04-29T07:49:38.674Z,61.15
2019-04-29T07:52:24.867Z,60.21
2019-04-29T07:55:12.509Z,60.00
2019-04-29T07:57:58.886Z,54.83
2019-04-29T08:00:48.837Z,53.48
2019-04-29T08:03:34.127Z,53.16
2019-04-29T08:06:20.408Z,53.95
2019-04-29T08:09:09.724Z,56.99
2019-04-29T08:11:56.767Z,54.35
2019-04-29T08:14:44.166Z,56.34
2019-04-29T08:17:30.679Z,55.59
2019-04-29T08:20:18.327Z,55.52
2019-04-29T08:23:07.167Z,57.39
2019-04-29T08:26:02.561Z,57.62
2019-04-29T08:28:52.874Z,59.03
2019-04-29T08:34:46.542Z,59.68
2019-04-29T08:37:33.552Z,61.49
2019-04-29T08:40:20.207Z,60.92
2019-04-29T08:43:22.230Z,60.38
2019-04-29T08:46:12.132Z,62.38
2019-04-29T08:49:01.160Z,63.61
2019-04-29T08:51:47.906Z,64.09
2019-04-29T08:54:37.122Z,64.71
2019-04-29T08:57:26.885Z,64.65
2019-04-29T09:00:15.507Z,64.57
2019-04-29T09:03:01.747Z,65.21
2019-04-29T09:06:04.390Z,64.41
2019-04-29T09:08:36.330Z,64.64
2019-04-29T09:11:22.707Z,64.30
2019-04-29T09:14:08.787Z,64.58
2019-04-29T09:16:55.027Z,64.15
2019-04-29T09:19:41.187Z,63.05
2019-04-29T09:22:29.427Z,62.90
2019-04-29T09:25:35.567Z,63.18
2019-04-29T09:28:27.169Z,64.21
2019-04-29T09:31:10.407Z,62.11
2019-04-29T09:34:06.520Z,61.06
2019-04-29T09:36:48.403Z,58.32
2019-04-29T09:39:43.370Z,58.95
2019-04-29T09:42:41.245Z,58.56
2019-04-29T09:45:47.167Z,58.31
2019-04-29T09:48:33.602Z,57.79
2019-04-29T09:51:22.596Z,56.50
2019-04-29T09:54:09.780Z,57.52
2019-04-29T09:56:56.747Z,57.73
2019-04-29T09:59:47.887Z,57.76
2019-04-29T10:03:02.484Z,58.44
2019-04-29T10:05:56.107Z,56.96
2019-04-29T10:08:42.665Z,58.22
2019-04-29T10:11:30.127Z,55.75
2019-04-29T10:14:16.446Z,56.23
2019-04-29T10:17:32.587Z,56.54
2019-04-29T10:20:41.089Z,56.18
2019-04-29T10:23:27.467Z,56.85
2019-04-29T10:26:16.529Z,57.86
2019-04-29T10:29:07.647Z,57.24
2019-04-29T10:32:02.555Z,55.75
2019-04-29T10:34:49.886Z,56.12
2019-04-29T10:37:36.654Z,56.16
2019-04-29T10:40:50.127Z,57.56
2019-04-29T10:43:55.654Z,57.25
2019-04-29T10:47:07.291Z,56.14
2019-04-29T10:49:58.100Z,57.41
2019-04-29T10:52:44.285Z,57.35
2019-04-29T10:55:31.720Z,57.85
2019-04-29T10:58:22.514Z,57.93
2019-04-29T11:02:01.356Z,58.13
2019-04-29T11:04:49.526Z,59.46
2019-04-29T11:07:38.327Z,60.33
2019-04-29T11:10:29.171Z,59.64
2019-04-29T11:13:18.887Z,60.00
2019-04-29T11:16:05.487Z,59.16
2019-04-29T11:18:55.162Z,59.41
2019-04-29T11:21:40.307Z,60.81
2019-04-29T11:24:46.532Z,61.12
2019-04-29T11:27:38.607Z,60.74
2019-04-29T11:30:26.248Z,60.36
2019-04-29T11:33:18.747Z,61.50
2019-04-29T11:36:09.927Z,61.34
2019-04-29T11:38:56.227Z,62.50
2019-04-29T11:41:44.729Z,62.29
2019-04-29T11:44:31.917Z,64.01
2019-04-29T11:47:20.893Z,65.44
2019-04-29T11:50:22.307Z,67.70
2019-04-29T11:53:17.247Z,70.17
2019-04-29T11:56:04.887Z,72.12
2019-04-29T11:58:58.933Z,72.95
2019-04-29T12:02:03.504Z,74.40
2019-04-29T12:04:54.088Z,74.71
2019-04-29T12:07:40.467Z,75.92
2019-04-29T12:10:26.687Z,76.06
2019-04-29T12:13:28.404Z,76.23
2019-04-29T12:16:30.807Z,76.43
2019-04-29T12:19:42.490Z,76.91
2019-04-29T12:23:11.083Z,76.75
2019-04-29T12:26:13.786Z,76.90
2019-04-29T12:29:59.225Z,76.58
2019-04-29T12:36:24.566Z,77.13
2019-04-29T12:43:32.236Z,77.14
2019-04-29T12:47:26.146Z,76.69
2019-04-29T12:55:19.217Z,78.67
2019-04-29T13:02:46.948Z,81.08
2019-04-29T13:06:02.947Z,82.23
2019-04-29T13:08:55.332Z,82.07
2019-04-29T13:12:05.065Z,82.88
2019-04-29T13:15:54.569Z,82.18
2019-04-29T13:23:33.283Z,83.98
2019-04-29T13:26:53.807Z,84.93
2019-04-29T13:34:24.053Z,84.47
2019-04-29T13:37:08.064Z,85.51
2019-04-29T13:44:41.693Z,86.30
2019-04-29T13:47:35.586Z,86.49
2019-04-29T13:50:39.393Z,87.26
2019-04-29T13:53:20.567Z,87.59
2019-04-29T13:56:28.524Z,88.03
2019-04-29T13:59:09.736Z,88.27
2019-04-29T14:02:07.465Z,88.62
2019-04-29T14:05:00.304Z,87.98
2019-04-29T14:07:52.692Z,88.83
2019-04-29T14:10:39.187Z,88.90
2019-04-29T14:13:28.223Z,89.21
2019-04-29T14:16:19.208Z,88.92
2019-04-29T14:19:13.428Z,89.61
2019-04-29T14:22:03.246Z,89.60
2019-04-29T14:24:50.361Z,89.41
2019-04-29T14:27:38.036Z,89.09
2019-04-29T14:30:38.381Z,88.98
2019-04-29T14:33:27.103Z,89.23
2019-04-29T14:36:15.021Z,89.18
2019-04-29T14:39:07.659Z,89.37
2019-04-29T14:41:58.387Z,89.21
2019-04-29T14:44:57.892Z,89.17
2019-04-29T14:50:31.288Z,88.37
2019-04-29T14:53:19.497Z,88.53
2019-04-29T14:56:06.696Z,88.22
2019-04-29T14:59:06.985Z,88.24
2019-04-29T15:10:36.527Z,87.60
2019-04-29T15:29:20.387Z,87.94
2019-04-29T15:51:23.566Z,86.35
2019-04-29T15:58:29.575Z,86.02
2019-04-29T16:02:04.661Z,85.64
2019-04-29T16:14:00.134Z,85.98
2019-04-29T16:33:20.067Z,85.13
2019-04-29T16:36:29.106Z,84.71
2019-04-29T16:40:15.127Z,85.17
2019-04-29T16:52:03.286Z,85.19
2019-04-29T16:55:35.807Z,85.29
2019-04-29T16:58:21.947Z,85.83
2019-04-29T17:01:10.108Z,85.93
2019-04-29T17:12:58.482Z,85.52
2019-04-29T17:15:52.310Z,85.14
2019-04-29T17:18:33.842Z,84.98
2019-04-29T17:21:23.352Z,84.43
2019-04-29T17:24:12.580Z,84.11
2019-04-29T17:27:11.115Z,84.19
2019-04-29T17:30:20.625Z,83.50
2019-04-29T17:33:26.357Z,83.17
2019-04-29T17:35:18.873Z,85.92
2019-04-29T17:36:06.042Z,83.79
2019-04-29T17:38:52.620Z,84.03
2019-04-29T17:41:43.813Z,84.30
2019-04-29T17:44:48.786Z,84.81
2019-04-29T17:47:56.405Z,84.51
2019-04-29T17:50:48.027Z,84.47
2019-04-29T17:53:43.590Z,84.48
2019-04-29T17:56:51.241Z,84.02
2019-04-29T18:04:57.251Z,84.42
2019-04-29T18:09:31.879Z,84.30
2019-04-29T18:13:26.441Z,83.76
2019-04-29T18:41:54.798Z,84.42
2019-04-29T18:54:21.923Z,85.07
2019-04-29T20:37:00.888Z,85.30
2019-04-29T21:13:58.450Z,90.83
2019-04-29T22:26:29.306Z,89.83
2019-04-29T22:29:15.580Z,89.27
2019-04-29T22:32:02.299Z,89.78
2019-04-29T22:34:49.627Z,89.51
2019-04-29T22:45:47.123Z,89.52
2019-04-29T22:48:40.567Z,89.73
2019-04-29T22:51:31.887Z,89.68
2019-04-29T22:54:57.949Z,89.95
2019-04-29T22:57:39.663Z,89.90
2019-04-29T23:00:32.667Z,89.81
2019-04-29T23:03:21.290Z,90.37
2019-04-29T23:06:12.543Z,90.33
2019-04-29T23:09:00.785Z,90.41
2019-04-29T23:11:49.120Z,90.53
2019-04-29T23:14:40.197Z,90.55
2019-04-29T23:17:26.373Z,90.04
2019-04-29T23:20:45.425Z,90.20
2019-04-29T23:23:39.075Z,89.78
2019-04-29T23:26:26.435Z,89.87
2019-04-29T23:29:15.546Z,89.56
2019-04-29T23:32:07.986Z,89.70
2019-04-29T23:34:54.989Z,89.67
2019-04-29T23:37:41.705Z,89.75
2019-04-29T23:40:27.905Z,89.96
2019-04-29T23:43:15.769Z,89.85
2019-04-29T23:46:02.335Z,89.95
2019-04-29T23:48:48.570Z,90.11
2019-04-29T23:51:37.732Z,90.35
2019-04-29T23:54:24.858Z,89.93
2019-04-29T23:57:30.653Z,90.07
